Smith Valley, Nevada Weather observations

Data are for 10 minute period ending at time listed.
 Day   Time   Solar   Ave.   Ave.  Ave.  Vector  Max.   Baro.   Total    
  of    of     Rad.   Air    Rel.  Wind   Wind   Wind  Press.  Precip.   
Year   Day            Temp.  Hum.  Speed  Dir.   Gust                    
2026   (PST)  Kw/m2    F      %     mph   deg.    mph    mb.     in.     
-------------------------------------------------------------------------
 248    1:10   0.00   47.1    71    1.7   207     3.3   853.2    0.00 
 248    1:20   0.00   46.7    70    2.8   224     4.0   853.1    0.00 
 248    1:30   0.00   47.4    67    1.8   245     3.5   853.2    0.00 
 248    1:40   0.00   49.1    62    1.5   228     2.7   853.2    0.00 
 248    1:50   0.00   49.5    60    3.0   283     3.8   853.2    0.00 
 248    2:00   0.00   48.9    62    2.1   276     3.9   853.2    0.00 
 248    2:10   0.00   47.2    68    1.6   170     3.6   853.3    0.00 
 248    2:20   0.00   46.5    71    1.2   144     3.2   853.4    0.00 
 248    2:30   0.00   45.6    72    0.2   212     1.5   853.3    0.00 
 248    2:40   0.00   43.8    74    0.8   224     2.2   853.3    0.00 
 248    2:50   0.00   42.6    80    1.7   217     2.9   853.3    0.00 
 248    3:00   0.00   41.7    78    1.1   206     1.7   853.3    0.00 
 248    3:10   0.00   41.5    76    1.7   204     3.1   853.4    0.00 
 248    3:20   0.00   40.5    81    2.5   205     3.0   853.4    0.00 
 248    3:30   0.00   40.7    85    1.9   173     2.4   853.5    0.00 
 248    3:40   0.00   40.9    84    1.9   178     2.8   853.6    0.00 
 248    3:50   0.00   41.2    85    2.7   186     3.6   853.6    0.00 
 248    4:00   0.00   40.8    84    1.4   173     2.1   853.6    0.00 
 248    4:10   0.00   41.0    82    2.4   185     3.3   853.6    0.00 
 248    4:20   0.00   41.4    82    2.6   188     3.2   853.5    0.00 
 248    4:30   0.00   41.4    82    2.1   186     3.0   853.4    0.00 
 248    4:40   0.00   41.2    81    1.8   183     2.7   853.4    0.00 
 248    4:50   0.00   40.5    84    2.2   132     3.2   853.4    0.00 
 248    5:00   0.00   40.6    81    2.3   146     4.4   853.5    0.00 
 248    5:10   0.00   39.6    84    2.2    59     4.0   853.6    0.00 
 248    5:20   0.00   38.9    86    2.0    76     3.4   853.7    0.00 
 248    5:30   0.00   38.9    88    2.4   114     4.2   853.7    0.00 
 248    5:40   0.01   39.6    85    1.9   125     3.3   853.7    0.00 
 248    5:50   0.05   40.3    81    1.9   187     2.8   853.7    0.00 
 248    6:00   0.08   40.0    79    1.7   207     2.9   853.8    0.00 
 248    6:10   0.11   41.0    80    0.7   184     1.4   853.9    0.00 
 248    6:20   0.14   43.3    76    0.7   107     1.8   854.1    0.00 
 248    6:30   0.17   45.4    75    1.8   115     2.8   854.2    0.00 
 248    6:40   0.21   47.0    71    1.3   134     3.0   854.2    0.00 
 248    6:50   0.24   49.5    65    2.2   136     5.0   854.2    0.00 
 248    7:00   0.27   51.5    61    2.3   147     4.4   854.2    0.00 
 248    7:10   0.31   52.9    59    3.6   137     5.2   854.1    0.00 
 248    7:20   0.34   53.9    56    2.6   143     5.0   854.1    0.00 
 248    7:30   0.38   55.3    54    2.0   179     3.9   854.1    0.00 
 248    7:40   0.41   56.0    53    2.4   181     4.6   854.1    0.00 
 248    7:50   0.45   57.0    52    2.2   174     4.4   854.0    0.00 
 248    8:00   0.48   57.9    50    2.4   181     4.7   853.9    0.00 
 248    8:10   0.52   58.7    50    2.1   200     4.2   853.9    0.00 
 248    8:20   0.56   60.0    48    1.3   171     3.8   853.8    0.00 
 248    8:30   0.59   60.4    48    2.6    53     5.5   853.7    0.00 
 248    8:40   0.62   60.8    47    2.7    31     5.2   853.7    0.00 
 248    8:50   0.66   61.5    46    2.6    88     4.7   853.6    0.00 
 248    9:00   0.69   62.3    44    1.3   270     3.5   853.5    0.00 
 248    9:10   0.72   63.1    43    1.8   109     3.9   853.5    0.00 
 248    9:20   0.75   63.8    43    3.2   111     6.1   853.5    0.00 
 248    9:30   0.78   64.0    42    2.4    61     6.2   853.4    0.00 
 248    9:40   0.80   63.7    42    3.5    17     6.6   853.4    0.00 
 248    9:50   0.83   64.2    40    2.8   351     5.4   853.2    0.00 
 248   10:00   0.85   65.2    39    2.6    42     6.6   853.2    0.00 
 248   10:10   0.87   65.6    38    4.3   358     7.6   853.1    0.00 
 248   10:20   0.90   65.7    37    4.0    16     8.2   853.1    0.00 
 248   10:30   0.92   66.5    36    4.1    36     8.6   853.1    0.00 
 248   10:40   0.93   67.4    35    4.2    92     8.1   853.1    0.00 
 248   10:50   0.94   68.3    33    3.3   120     7.7   853.0    0.00 
 248   11:00   0.96   68.5    33    4.3   135     8.1   852.9    0.00 
 248   11:10   0.97   69.0    31    2.5   128     6.0   852.8    0.00 
 248   11:20   0.99   68.8    32    4.3   230     8.4   852.7    0.00 
 248   11:30   0.99   69.4    31    3.8   257     7.6   852.5    0.00 
 248   11:40   1.00   70.1    30    4.0   220     8.8   852.3    0.00 
 248   11:50   1.00   70.9    29    3.9    36     7.5   852.2    0.00 
 248   12:00   1.01   70.8    29    2.2    46     7.5   852.2    0.00 
 248   12:10   1.01   72.1    27    2.1    50     5.6   852.2    0.00 
 248   12:20   1.01   72.4    27    2.2   130     5.8   852.1    0.00 
 248   12:30   1.00   73.3    28    3.6   179     6.7   852.0    0.00 
 248   12:40   0.99   73.5    27    5.8   345    10.8   851.9    0.00 
 248   12:50   0.99   73.7    27    4.0   332     9.2   851.8    0.00 
 248   13:00   0.98   74.2    27    5.0    26    10.4   851.7    0.00 
 248   13:10   0.96   74.1    27    4.4    41     9.9   851.7    0.00 
 248   13:20   0.95   73.7    27    2.9    78     8.3   851.6    0.00 
 248   13:30   0.94   75.3    26    2.6   187     6.4   851.5    0.00 
 248   13:40   0.92   75.8    25    4.0    90     7.9   851.3    0.00 
 248   13:50   0.90   75.7    25    4.6   119     7.4   851.2    0.00 
 248   14:00   0.89   75.7    24    3.7   127     8.6   851.1    0.00 
 248   14:10   0.64   76.5    24    5.2    33     9.7   851.0    0.00 
 248   14:20   0.52   76.2    24    5.2    67     9.2   850.9    0.00 
 248   14:30   0.35   75.5    24    3.5    58     7.6   850.8    0.00 
 248   14:40   0.38   76.2    22    3.6     5     8.6   850.7    0.00 
 248   14:50   0.53   75.7    22    2.3    84     6.1   850.6    0.00 
 248   15:00   0.73   77.6    21    3.9    55     8.9   850.4    0.00 
 248   15:10   0.69   78.5    20    3.1   137     7.7   850.3    0.00 
 248   15:20   0.67   79.2    19    5.8   226    13.5   850.3    0.00 
 248   15:30   0.63   80.3    17   11.2   206    17.8   850.4    0.00 
 248   15:40   0.59   79.4    17   10.1   202    16.8   850.3    0.00 
 248   15:50   0.55   79.1    18   12.7   223    18.0   850.3    0.00 
 248   16:00   0.51   78.9    18   11.5   218    19.7   850.4    0.00 
 248   16:10   0.47   78.0    18   13.3   226    23.8   850.5    0.00 
 248   16:20   0.44   77.6    19   12.5   218    19.9   850.6    0.00 
 248   16:30   0.40   77.5    19   12.1   214    19.5   850.7    0.00 
 248   16:40   0.36   76.9    19   12.4   218    17.3   850.7    0.00 
 248   16:50   0.33   76.2    19   11.6   223    16.1   850.7    0.00 
 248   17:00   0.29   75.9    19   11.7   220    18.1   850.7    0.00 
 248   17:10   0.26   75.6    20   11.4   219    15.4   850.7    0.00 
 248   17:20   0.22   74.9    20    8.8   230    13.0   850.7    0.00 
 248   17:30   0.19   74.0    21    8.3   232    13.0   850.7    0.00 
 248   17:40   0.10   72.9    22    8.4   239    13.3   850.7    0.00 
 248   17:50   0.02   71.0    23    7.7   243    11.5   850.5    0.00 
 248   18:00   0.02   70.1    24    7.6   236    10.9   850.4    0.00 
 248   18:10   0.01   69.4    25    7.0   242    10.1   850.3    0.00 
 248   18:20   0.01   68.3    26    5.4   238     7.6   850.3    0.00 
 248   18:30   0.00   66.8    29    4.4   212     8.0   850.3    0.00 
 248   18:40   0.00   64.8    31    4.0   199     5.3   850.2    0.00 
 248   18:50   0.00   63.5    34    4.4   215     6.6   850.2    0.00 
 248   19:00   0.00   63.8    33    6.4   211    10.3   850.3    0.00 
 248   19:10   0.00   65.7    30    7.1   216    10.7   850.4    0.00 
 248   19:20   0.00   64.1    34    7.8   230     9.9   850.5    0.00 
 248   19:30   0.00   64.6    33    9.1   230    13.1   850.6    0.00 
 248   19:40   0.00   66.2    31   10.7   222    13.8   850.6    0.00 
 248   19:50   0.00   65.6    32   11.0   232    16.0   850.6    0.00 
 248   20:00   0.00   65.3    33   11.4   231    16.6   850.6    0.00 
 248   20:10   0.00   65.8    32   11.4   233    16.2   850.7    0.00 
 248   20:20   0.00   66.3    30   11.4   234    19.5   850.7    0.00 
 248   20:30   0.00   65.9    30    7.7   217    13.8   850.9    0.00 
 248   20:40   0.00   64.1    35    4.5    97     6.8   851.2    0.00 
 248   20:50   0.00   65.0    30    5.9   138    15.0   851.2    0.00 
 248   21:00   0.00   65.0    33    5.4   141     8.9   851.3    0.00 
 248   21:10   0.00   62.9    35    7.1   155    11.3   851.4    0.00 
 248   21:20   0.00   64.3    34    6.7   167     9.6   851.4    0.00 
 248   21:30   0.00   62.7    37    4.9   151     7.3   851.6    0.00 
 248   21:40   0.00   59.8    43    4.9   117     6.8   851.7    0.00 
 248   21:50   0.00   59.1    42    4.1   141     6.2   851.8    0.00 
 248   22:00   0.00   58.0    44    4.0   152     5.8   851.9    0.00 
 248   22:10   0.00   58.6    44    4.7   154     5.9   852.0    0.00 
 248   22:20   0.00   59.2    44    3.3   156     5.4   852.1    0.00 
 248   22:30   0.00   59.0    45    1.9    60     3.9   852.2    0.00 
 248   22:40   0.00   57.0    49    3.5   295     5.5   852.3    0.00 
 248   22:50   0.00   53.3    58    4.0   266     5.6   852.5    0.00 
 248   23:00   0.00   53.9    55    3.1   284     4.5   852.6    0.00 
 248   23:10   0.00   54.5    54    4.5   298     6.0   852.6    0.00 
 248   23:20   0.00   55.2    52    3.9   300     5.9   852.7    0.00 
 248   23:30   0.00   55.2    53    3.6   305     4.4   852.7    0.00 
 248   23:40   0.00   55.9    51    3.4   318     5.5   852.7    0.00 
 248   23:50   0.00   55.0    54    3.4   287     4.7   852.7    0.00 
 249    0:00   0.00   52.9    57    2.3   313     4.6   852.7    0.00 
 249    0:10   0.00   52.8    58    2.6   297     3.9   852.8    0.00 
 249    0:20   0.00   51.7    59    1.1   231     2.4   852.9    0.00 
 249    0:30   0.00   49.9    62    0.8   210     1.8   853.0    0.00 
 249    0:40   0.00   49.0    62    1.7   242     2.9   853.0    0.00 
 249    0:50   0.00   47.2    66    1.5   221     3.2   852.9    0.00 
 249    1:00   0.00   45.7    70    1.0   180     4.0   852.9    0.00 

Return to Smith Valley graphs page.


Western Regional Climate Center,wrcc@dri.edu